Archival Weather

Murmansk

Murmansk, Russia (ULMM)

Report from: Thursday, April 25, 2024 5:30 AM MSK
Current time: Monday, June 17, 2024 11:30 AM MSK

Current weather – Weather history – Daily summaries
Weather forecast

Temperature-0.0°C (32.0°F)
Wind chill-3.5°C (25.7°F)
Dew point-1.0°C (30.2°F)
Winds 5.8 kts (3 m/s, 6.7 mph) Southeast (140°)
Visibility6.2 mi. (10 km)
Clouds Ceiling: Broken clouds 1,400 ft. (427 m)
Altimeter29.97 in.Hg (1015 mB)
Precip. events QF 1:34 PM
Relative humidity93 %
Density altitude-1,807 ft. (-551 m)
Remarks No significant changes expected in the next two hours
Flight conditions Marginal Visual Meteorological Conditions
Raw dataULMM 250230Z 14003MPS 9999 BKN014 M00/M01 Q1015 R13/690152 NOSIG RMK QFE754
An error has occurred. This application may no longer respond until reloaded. Reload 🗙